createdAt,value
2018-07-12T00:02:46.565Z,6.00
2018-07-12T00:07:50.134Z,11.00
2018-07-12T00:12:53.619Z,8.00
2018-07-12T00:17:56.292Z,8.75
2018-07-12T00:22:59.195Z,8.75
2018-07-12T00:28:01.810Z,9.50
2018-07-12T00:33:04.390Z,10.60
2018-07-12T00:38:07.016Z,11.00
2018-07-12T00:43:10.022Z,11.75
2018-07-12T00:48:12.680Z,11.50
2018-07-12T00:53:15.279Z,11.00
2018-07-12T00:58:17.967Z,12.40
2018-07-12T01:03:20.560Z,10.60
2018-07-12T01:08:23.146Z,11.00
2018-07-12T01:13:25.815Z,14.00
2018-07-12T01:18:28.773Z,7.40
2018-07-12T01:23:32.348Z,13.60
2018-07-12T01:28:35.026Z,8.75
2018-07-12T01:33:37.706Z,10.00
2018-07-12T01:38:40.301Z,11.40
2018-07-12T01:43:42.926Z,9.25
2018-07-12T01:48:46.237Z,7.40
2018-07-12T01:53:48.814Z,9.50
2018-07-12T01:58:51.463Z,11.00
2018-07-12T02:03:54.014Z,7.00
2018-07-12T02:08:56.547Z,12.60
2018-07-12T02:13:59.220Z,10.75
2018-07-12T02:19:01.825Z,6.00
2018-07-12T02:24:05.089Z,9.60
2018-07-12T02:29:07.575Z,8.00
2018-07-12T02:34:10.503Z,8.25
2018-07-12T02:39:13.042Z,7.00
2018-07-12T02:44:15.688Z,7.60
2018-07-12T02:49:18.962Z,10.00
2018-07-12T02:54:21.496Z,9.25
2018-07-12T02:59:24.097Z,9.75
2018-07-12T03:04:26.692Z,9.40
2018-07-12T03:09:29.956Z,11.50
2018-07-12T03:14:32.517Z,8.60
2018-07-12T03:19:35.121Z,13.75
2018-07-12T03:24:38.245Z,7.00
2018-07-12T03:29:41.691Z,9.20
2018-07-12T03:34:44.217Z,7.60
2018-07-12T03:39:46.714Z,7.00
2018-07-12T03:44:49.260Z,7.00
2018-07-12T03:49:51.923Z,8.00
2018-07-12T03:54:54.563Z,9.00
2018-07-12T03:59:57.079Z,9.00
2018-07-12T04:04:59.672Z,9.80
2018-07-12T04:10:05.800Z,8.00
2018-07-12T04:15:08.272Z,11.80
2018-07-12T04:20:10.756Z,9.00
2018-07-12T04:25:13.282Z,12.25
2018-07-12T04:30:15.768Z,13.00
2018-07-12T04:35:18.271Z,13.60
2018-07-12T04:40:20.970Z,13.00
2018-07-12T04:45:23.726Z,17.00
2018-07-12T04:50:26.228Z,19.25
2018-07-12T04:55:29.052Z,19.25
2018-07-12T05:00:31.690Z,22.50
2018-07-12T05:05:34.204Z,24.40
2018-07-12T05:10:36.763Z,23.40
2018-07-12T05:15:39.320Z,22.20
2018-07-12T05:20:41.905Z,20.75
2018-07-12T05:25:44.442Z,22.20
2018-07-12T05:30:47.235Z,19.80
2018-07-12T05:35:50.901Z,21.50
2018-07-12T05:40:54.664Z,23.00
2018-07-12T05:45:58.397Z,20.00
2018-07-12T05:51:02.063Z,21.00
2018-07-12T05:56:05.813Z,24.75
2018-07-12T06:01:20.580Z,28.25
2018-07-12T06:06:24.291Z,22.20
2018-07-12T06:11:28.832Z,26.00
2018-07-12T06:16:32.611Z,27.20
2018-07-12T06:21:36.370Z,21.60
2018-07-12T06:26:40.108Z,31.00
2018-07-12T06:31:43.774Z,26.00
2018-07-12T06:36:47.731Z,26.00
2018-07-12T06:41:51.788Z,33.20
2018-07-12T06:46:55.498Z,25.20
2018-07-12T06:51:59.159Z,26.40
2018-07-12T06:57:02.882Z,27.25
2018-07-12T07:02:11.151Z,31.25
2018-07-12T07:07:15.079Z,24.75
2018-07-12T07:12:18.849Z,19.00
2018-07-12T07:17:23.142Z,15.40
2018-07-12T07:22:27.267Z,15.25
2018-07-12T07:27:31.106Z,11.00
2018-07-12T07:32:34.866Z,11.00
2018-07-12T07:37:39.324Z,11.20
2018-07-12T07:42:43.784Z,8.75
2018-07-12T07:47:48.035Z,11.20
2018-07-12T07:52:51.777Z,8.50
2018-07-12T07:57:56.757Z,10.20
2018-07-12T08:03:00.449Z,10.25
2018-07-12T08:08:04.213Z,10.00
2018-07-12T08:13:07.990Z,10.50
2018-07-12T08:18:12.679Z,9.60
2018-07-12T08:23:17.891Z,7.00
2018-07-12T08:28:24.339Z,13.00
2018-07-12T08:33:28.355Z,15.00
2018-07-12T08:38:33.902Z,12.00
2018-07-12T08:43:38.308Z,14.20
2018-07-12T08:48:43.890Z,9.00
2018-07-12T08:53:47.519Z,9.40
2018-07-12T08:58:51.212Z,10.25
2018-07-12T09:03:54.898Z,11.00
2018-07-12T09:08:59.774Z,10.60
2018-07-12T09:14:03.614Z,24.00
2018-07-12T09:19:07.358Z,23.00
2018-07-12T09:24:11.010Z,21.25
2018-07-12T09:29:14.734Z,18.80
2018-07-12T09:34:18.463Z,16.80
2018-07-12T09:39:22.178Z,14.60
2018-07-12T09:44:25.914Z,15.00
2018-07-12T09:49:29.997Z,17.00
2018-07-12T09:54:33.669Z,13.25
2018-07-12T09:59:37.371Z,11.80
2018-07-12T10:04:41.100Z,11.25
2018-07-12T10:09:50.074Z,11.00
2018-07-12T10:14:57.772Z,13.75
2018-07-12T10:20:02.726Z,11.75
2018-07-12T10:29:30.854Z,12.40
2018-07-12T10:34:34.558Z,15.75
2018-07-12T10:39:38.255Z,13.25
2018-07-12T10:44:42.148Z,13.25
2018-07-12T10:49:45.800Z,13.25
2018-07-12T10:54:49.446Z,12.20
2018-07-12T10:59:53.117Z,16.25
2018-07-12T11:04:56.805Z,15.75
2018-07-12T11:10:02.918Z,15.80
2018-07-12T11:15:07.164Z,10.60
2018-07-12T11:20:11.426Z,15.00
2018-07-12T11:25:15.134Z,15.40
2018-07-12T11:30:18.874Z,17.00
2018-07-12T11:35:22.538Z,15.60
2018-07-12T11:40:26.154Z,15.75
2018-07-12T11:45:29.814Z,16.25
2018-07-12T11:50:33.442Z,15.00
2018-07-12T11:55:37.244Z,18.00
2018-07-12T12:00:43.304Z,19.00
2018-07-12T12:05:49.240Z,16.25
2018-07-12T12:10:53.766Z,16.25
2018-07-12T12:15:57.541Z,17.20
2018-07-12T12:21:01.354Z,16.00
2018-07-12T12:26:05.117Z,17.50
2018-07-12T12:31:08.854Z,18.75
2018-07-12T12:36:14.008Z,16.75
2018-07-12T12:41:17.972Z,18.00
2018-07-12T12:46:21.750Z,12.75
2018-07-12T12:51:25.653Z,14.60
2018-07-12T12:56:29.417Z,13.00
2018-07-12T13:01:33.059Z,14.75
2018-07-12T13:06:36.881Z,16.00
2018-07-12T13:11:40.596Z,16.00
2018-07-12T13:16:44.507Z,15.80
2018-07-12T13:21:48.266Z,11.00
2018-07-12T13:26:52.075Z,18.75
2018-07-12T13:31:55.837Z,11.50
2018-07-12T13:36:59.642Z,16.00
2018-07-12T13:42:03.597Z,13.40
2018-07-12T13:47:07.487Z,14.40
2018-07-12T13:52:12.153Z,12.00
2018-07-12T13:57:17.601Z,16.25
2018-07-12T14:02:21.620Z,16.00
2018-07-12T14:07:26.366Z,14.00
2018-07-12T14:12:30.408Z,15.00
2018-07-12T14:17:41.399Z,14.25
2018-07-12T14:22:45.267Z,15.25
2018-07-12T14:27:49.140Z,17.00
2018-07-12T14:32:52.875Z,15.00
2018-07-12T14:37:56.546Z,14.60
2018-07-12T14:43:00.283Z,13.25
2018-07-12T14:48:03.982Z,11.00
2018-07-12T14:53:07.765Z,13.50
2018-07-12T14:58:11.509Z,15.75
2018-07-12T15:03:15.282Z,13.00
2018-07-12T15:08:25.328Z,15.60
2018-07-12T15:13:30.368Z,12.75
2018-07-12T15:18:34.943Z,13.50
2018-07-12T15:23:41.615Z,11.25
2018-07-12T15:28:45.767Z,10.75
2018-07-12T15:33:49.706Z,12.75
2018-07-12T15:38:53.984Z,14.00
2018-07-12T15:43:59.503Z,12.40
2018-07-12T15:49:04.043Z,11.75
2018-07-12T15:54:07.779Z,13.20
2018-07-12T15:59:11.445Z,9.40
2018-07-12T16:04:15.151Z,12.00
2018-07-12T16:09:18.757Z,14.00
2018-07-12T16:14:22.512Z,29.00
2018-07-12T16:19:27.269Z,34.50
2018-07-12T16:24:31.160Z,37.25
2018-07-12T16:29:36.267Z,34.40
2018-07-12T16:34:40.753Z,37.75
2018-07-12T16:39:46.213Z,38.50
2018-07-12T16:44:50.295Z,29.40
2018-07-12T16:49:55.980Z,18.50
2018-07-12T16:55:03.613Z,19.60
2018-07-12T17:00:08.283Z,19.60
2018-07-12T17:05:12.067Z,18.20
2018-07-12T17:10:16.097Z,19.00
2018-07-12T17:15:20.428Z,16.75
2018-07-12T17:20:25.916Z,16.80
2018-07-12T17:25:29.618Z,17.00
2018-07-12T17:30:33.941Z,14.80
2018-07-12T17:35:38.054Z,14.25
2018-07-12T17:40:41.979Z,18.50
2018-07-12T17:45:45.771Z,16.25
2018-07-12T17:50:56.587Z,14.75
2018-07-12T17:56:01.100Z,15.60
2018-07-12T18:01:09.281Z,16.50
2018-07-12T18:06:13.019Z,14.75
2018-07-12T18:11:17.815Z,14.75
2018-07-12T18:16:21.578Z,13.00
2018-07-12T18:21:25.476Z,14.75
2018-07-12T18:26:29.348Z,11.50
2018-07-12T18:31:33.207Z,14.25
2018-07-12T18:36:36.970Z,15.25
2018-07-12T18:41:55.508Z,15.50
2018-07-12T18:52:24.067Z,17.60
2018-07-12T18:57:27.835Z,13.75
2018-07-12T19:02:32.242Z,16.00
2018-07-12T19:07:37.615Z,23.00
2018-07-12T19:12:42.901Z,32.00
2018-07-12T19:17:47.542Z,27.50
2018-07-12T19:22:51.755Z,28.75
2018-07-12T19:27:57.588Z,32.50
2018-07-12T19:33:02.657Z,29.80
2018-07-12T19:38:07.956Z,34.25
2018-07-12T19:43:12.136Z,28.25
2018-07-12T19:48:16.310Z,29.75
2018-07-12T19:53:21.523Z,27.50
2018-07-12T19:58:28.118Z,30.00
2018-07-12T20:03:32.580Z,28.00
2018-07-12T20:08:36.611Z,26.50
2018-07-12T20:13:42.198Z,24.00
2018-07-12T20:18:46.377Z,24.75
2018-07-12T20:23:51.267Z,22.00
2018-07-12T20:28:55.228Z,19.60
2018-07-12T20:34:01.050Z,21.00
2018-07-12T20:39:06.565Z,19.00
2018-07-12T20:44:12.894Z,19.20
2018-07-12T20:49:27.173Z,18.00
2018-07-12T20:54:38.748Z,17.00
2018-07-12T20:59:53.517Z,18.80
2018-07-12T21:04:57.320Z,19.00
2018-07-12T21:10:03.310Z,18.50
2018-07-12T21:15:07.646Z,19.00
2018-07-12T21:20:11.355Z,18.80
2018-07-12T21:25:15.122Z,16.00
2018-07-12T21:30:18.806Z,14.00
2018-07-12T21:35:22.424Z,20.80
2018-07-12T21:40:26.169Z,20.40
2018-07-12T21:45:29.921Z,13.75
2018-07-12T21:50:33.747Z,16.20
2018-07-12T21:55:37.469Z,15.80
2018-07-12T22:00:41.175Z,16.60
2018-07-12T22:05:44.915Z,15.75
2018-07-12T22:10:49.752Z,14.25
2018-07-12T22:15:53.425Z,17.20
2018-07-12T22:20:57.042Z,15.50
2018-07-12T22:26:00.820Z,15.00
2018-07-12T22:31:04.704Z,15.00
2018-07-12T22:36:08.785Z,19.20
2018-07-12T22:41:12.658Z,14.60
2018-07-12T22:46:16.667Z,13.80
2018-07-12T22:51:20.774Z,12.40
2018-07-12T22:56:24.478Z,14.00
2018-07-12T23:01:28.154Z,13.75
2018-07-12T23:06:31.977Z,12.50
2018-07-12T23:11:35.659Z,14.50
2018-07-12T23:16:39.286Z,9.60
2018-07-12T23:21:44.032Z,11.25
2018-07-12T23:26:47.794Z,11.20
2018-07-12T23:31:51.510Z,11.20
2018-07-12T23:36:55.211Z,14.75
2018-07-12T23:41:58.954Z,11.50
2018-07-12T23:47:02.698Z,13.20
2018-07-12T23:52:06.450Z,10.00
2018-07-12T23:57:10.109Z,10.50
